<?xml version="1.0" encoding="UTF-8" standalone="no" ?>
<gpx xmlns="http://www.topografix.com/GPX/1/1" xmlns:xsi="http://www.w3.org/2001/XMLSchema-instance" xsi:schemaLocation="http://www.topografix.com/GPX/1/1 http://www.topografix.com/GPX/1/1/gpx.xsd" version="1.1" creator="VisuGPX - https://www.visugpx.com">
  <metadata>
    <name>Rando Abbaye Port Royal, Court</name>
  </metadata>
  <trk>
    <name><![CDATA[Maps3D 2022-08-26 01-28pm]]></name>
    <extensions>
      <line xmlns="http://www.topografix.com/GPX/gpx_style/0/2">
        <color>0000FF</color>
        <width>4</width>
          <extensions>
            <sens>1</sens>
          </extensions>
      </line>
    </extensions>
    <trkseg>
      <trkpt lat="48.7437" lon="2.06209">
        <ele>153.2</ele>
        <time>2022-08-26T08:57:46Z</time>
      </trkpt>
      <trkpt lat="48.74376" lon="2.06216">
        <ele>152.7</ele>
      </trkpt>
      <trkpt lat="48.74396" lon="2.06242">
        <ele>150.8</ele>
      </trkpt>
      <trkpt lat="48.74414" lon="2.06276">
        <ele>147.4</ele>
      </trkpt>
      <trkpt lat="48.74425" lon="2.06308">
        <ele>143</ele>
      </trkpt>
      <trkpt lat="48.74453" lon="2.06366">
        <ele>132.4</ele>
      </trkpt>
      <trkpt lat="48.74466" lon="2.06388">
        <ele>129.7</ele>
      </trkpt>
      <trkpt lat="48.74512" lon="2.06428">
        <ele>125</ele>
      </trkpt>
      <trkpt lat="48.74561" lon="2.06476">
        <ele>118.7</ele>
      </trkpt>
      <trkpt lat="48.74582" lon="2.06507">
        <ele>117</ele>
      </trkpt>
      <trkpt lat="48.74608" lon="2.06531">
        <ele>118.9</ele>
      </trkpt>
      <trkpt lat="48.74612" lon="2.06525">
        <ele>119.1</ele>
      </trkpt>
      <trkpt lat="48.74631" lon="2.06522">
        <ele>121.4</ele>
      </trkpt>
      <trkpt lat="48.74639" lon="2.06469">
        <ele>120</ele>
      </trkpt>
      <trkpt lat="48.74653" lon="2.06431">
        <ele>122.1</ele>
      </trkpt>
      <trkpt lat="48.74674" lon="2.06385">
        <ele>124.7</ele>
      </trkpt>
      <trkpt lat="48.7468" lon="2.06361">
        <ele>125.2</ele>
      </trkpt>
      <trkpt lat="48.74677" lon="2.06346">
        <ele>124</ele>
      </trkpt>
      <trkpt lat="48.7468" lon="2.06322">
        <ele>124.1</ele>
      </trkpt>
      <trkpt lat="48.74677" lon="2.0631">
        <ele>123.2</ele>
      </trkpt>
      <trkpt lat="48.74686" lon="2.06279">
        <ele>124.5</ele>
      </trkpt>
      <trkpt lat="48.74697" lon="2.06259">
        <ele>125.9</ele>
      </trkpt>
      <trkpt lat="48.74702" lon="2.06244">
        <ele>126.4</ele>
      </trkpt>
      <trkpt lat="48.74715" lon="2.06229">
        <ele>128.1</ele>
      </trkpt>
      <trkpt lat="48.74717" lon="2.06191">
        <ele>126.2</ele>
      </trkpt>
      <trkpt lat="48.74735" lon="2.06137">
        <ele>127.6</ele>
      </trkpt>
      <trkpt lat="48.74739" lon="2.06119">
        <ele>127.8</ele>
      </trkpt>
      <trkpt lat="48.74737" lon="2.06093">
        <ele>126.5</ele>
      </trkpt>
      <trkpt lat="48.74741" lon="2.06068">
        <ele>126.1</ele>
      </trkpt>
      <trkpt lat="48.74755" lon="2.06031">
        <ele>126.5</ele>
      </trkpt>
      <trkpt lat="48.74784" lon="2.05976">
        <ele>127.6</ele>
      </trkpt>
      <trkpt lat="48.74797" lon="2.05937">
        <ele>126.9</ele>
      </trkpt>
      <trkpt lat="48.74813" lon="2.05901">
        <ele>127.6</ele>
      </trkpt>
      <trkpt lat="48.74843" lon="2.05834">
        <ele>129.1</ele>
      </trkpt>
      <trkpt lat="48.74856" lon="2.05724">
        <ele>125.8</ele>
      </trkpt>
      <trkpt lat="48.74885" lon="2.05648">
        <ele>127.3</ele>
        <time>2022-08-26T08:58:02Z</time>
      </trkpt>
      <trkpt lat="48.74905" lon="2.05569">
        <ele>128.5</ele>
      </trkpt>
      <trkpt lat="48.74904" lon="2.05528">
        <ele>128.7</ele>
        <time>2022-08-26T08:58:18Z</time>
      </trkpt>
      <trkpt lat="48.74903" lon="2.05491">
        <ele>129.5</ele>
      </trkpt>
      <trkpt lat="48.74891" lon="2.05443">
        <ele>128.6</ele>
      </trkpt>
      <trkpt lat="48.74887" lon="2.0541">
        <ele>129.7</ele>
      </trkpt>
      <trkpt lat="48.74901" lon="2.05328">
        <ele>129.9</ele>
        <time>2022-08-26T08:58:34Z</time>
      </trkpt>
      <trkpt lat="48.74922" lon="2.05226">
        <ele>128.9</ele>
      </trkpt>
      <trkpt lat="48.74944" lon="2.05196">
        <ele>130.1</ele>
        <time>2022-08-26T08:58:50Z</time>
      </trkpt>
      <trkpt lat="48.74963" lon="2.0518">
        <ele>133.1</ele>
      </trkpt>
      <trkpt lat="48.74984" lon="2.05173">
        <ele>136.6</ele>
      </trkpt>
      <trkpt lat="48.74996" lon="2.05153">
        <ele>138.8</ele>
      </trkpt>
      <trkpt lat="48.7502" lon="2.05166">
        <ele>143.4</ele>
      </trkpt>
      <trkpt lat="48.75047" lon="2.05171">
        <ele>148.1</ele>
      </trkpt>
      <trkpt lat="48.75058" lon="2.05132">
        <ele>149.4</ele>
        <time>2022-08-26T08:59:06Z</time>
      </trkpt>
      <trkpt lat="48.7507" lon="2.05068">
        <ele>152.6</ele>
        <time>2022-08-26T08:59:22Z</time>
      </trkpt>
      <trkpt lat="48.75054" lon="2.05046">
        <ele>152.6</ele>
        <time>2022-08-26T08:59:37Z</time>
      </trkpt>
      <trkpt lat="48.75038" lon="2.0504">
        <ele>151.8</ele>
      </trkpt>
      <trkpt lat="48.7503" lon="2.05048">
        <ele>150.7</ele>
      </trkpt>
      <trkpt lat="48.75017" lon="2.0504">
        <ele>150</ele>
      </trkpt>
      <trkpt lat="48.75013" lon="2.05018">
        <ele>151.1</ele>
      </trkpt>
      <trkpt lat="48.75014" lon="2.0501">
        <ele>151.9</ele>
        <time>2022-08-26T08:59:53Z</time>
      </trkpt>
      <trkpt lat="48.75012" lon="2.04931">
        <ele>155.2</ele>
        <time>2022-08-26T09:00:09Z</time>
      </trkpt>
      <trkpt lat="48.7501" lon="2.04899">
        <ele>155.4</ele>
      </trkpt>
      <trkpt lat="48.75001" lon="2.04786">
        <ele>152.4</ele>
      </trkpt>
      <trkpt lat="48.75002" lon="2.04754">
        <ele>152.2</ele>
        <time>2022-08-26T09:00:24Z</time>
      </trkpt>
      <trkpt lat="48.75001" lon="2.04728">
        <ele>152.9</ele>
      </trkpt>
      <trkpt lat="48.75002" lon="2.04701">
        <ele>154.6</ele>
        <time>2022-08-26T09:00:40Z</time>
      </trkpt>
      <trkpt lat="48.75" lon="2.04675">
        <ele>155.7</ele>
        <time>2022-08-26T09:00:56Z</time>
      </trkpt>
      <trkpt lat="48.74999" lon="2.0465">
        <ele>156.6</ele>
        <time>2022-08-26T09:01:11Z</time>
      </trkpt>
      <trkpt lat="48.74997" lon="2.04639">
        <ele>157</ele>
      </trkpt>
      <trkpt lat="48.74987" lon="2.04577">
        <ele>156.4</ele>
        <time>2022-08-26T09:01:27Z</time>
      </trkpt>
      <trkpt lat="48.74981" lon="2.04535">
        <ele>154.6</ele>
        <time>2022-08-26T09:01:42Z</time>
      </trkpt>
      <trkpt lat="48.74976" lon="2.04495">
        <ele>152.3</ele>
        <time>2022-08-26T09:01:58Z</time>
      </trkpt>
      <trkpt lat="48.7497" lon="2.04459">
        <ele>149.1</ele>
        <time>2022-08-26T09:02:14Z</time>
      </trkpt>
      <trkpt lat="48.74965" lon="2.04405">
        <ele>149.8</ele>
        <time>2022-08-26T09:02:30Z</time>
      </trkpt>
      <trkpt lat="48.74958" lon="2.04343">
        <ele>152.6</ele>
      </trkpt>
      <trkpt lat="48.74967" lon="2.04333">
        <ele>154.3</ele>
      </trkpt>
      <trkpt lat="48.74986" lon="2.04326">
        <ele>155.2</ele>
        <time>2022-08-26T09:02:46Z</time>
      </trkpt>
      <trkpt lat="48.7501" lon="2.04293">
        <ele>155.4</ele>
      </trkpt>
      <trkpt lat="48.75013" lon="2.04258">
        <ele>158.351822</ele>
        <time>2022-08-26T09:03:01Z</time>
      </trkpt>
      <trkpt lat="48.75024" lon="2.04238">
        <ele>154.2</ele>
      </trkpt>
      <trkpt lat="48.75027" lon="2.04225">
        <ele>154</ele>
      </trkpt>
      <trkpt lat="48.75041" lon="2.04205">
        <ele>154</ele>
      </trkpt>
      <trkpt lat="48.75051" lon="2.04188">
        <ele>154.1</ele>
      </trkpt>
      <trkpt lat="48.75074" lon="2.04178">
        <ele>158.030701</ele>
        <time>2022-08-26T09:03:17Z</time>
      </trkpt>
      <trkpt lat="48.75119" lon="2.0417">
        <ele>157.4</ele>
      </trkpt>
      <trkpt lat="48.75139" lon="2.0416">
        <ele>157.7</ele>
      </trkpt>
      <trkpt lat="48.7516" lon="2.04134">
        <ele>158.2</ele>
        <time>2022-08-26T09:03:33Z</time>
      </trkpt>
      <trkpt lat="48.75182" lon="2.04108">
        <ele>157.8</ele>
      </trkpt>
      <trkpt lat="48.75208" lon="2.04103">
        <ele>158.2</ele>
      </trkpt>
      <trkpt lat="48.75242" lon="2.04112">
        <ele>160.65387</ele>
        <time>2022-08-26T09:03:48Z</time>
      </trkpt>
      <trkpt lat="48.75291" lon="2.04121">
        <ele>159.4</ele>
      </trkpt>
      <trkpt lat="48.75324" lon="2.041">
        <ele>158.7</ele>
      </trkpt>
      <trkpt lat="48.75335" lon="2.04086">
        <ele>158.4</ele>
        <time>2022-08-26T09:04:04Z</time>
      </trkpt>
      <trkpt lat="48.75348" lon="2.04074">
        <ele>158.9</ele>
      </trkpt>
      <trkpt lat="48.75365" lon="2.04071">
        <ele>160.1</ele>
      </trkpt>
      <trkpt lat="48.75391" lon="2.04083">
        <ele>162.777222</ele>
        <time>2022-08-26T09:04:19Z</time>
      </trkpt>
      <trkpt lat="48.75414" lon="2.04087">
        <ele>162.1</ele>
      </trkpt>
      <trkpt lat="48.75428" lon="2.04083">
        <ele>162.4</ele>
        <time>2022-08-26T09:04:35Z</time>
      </trkpt>
      <trkpt lat="48.75439" lon="2.04067">
        <ele>162.2</ele>
      </trkpt>
      <trkpt lat="48.75438" lon="2.0403">
        <ele>160.8</ele>
      </trkpt>
      <trkpt lat="48.75446" lon="2.03999">
        <ele>160</ele>
        <time>2022-08-26T09:04:51Z</time>
      </trkpt>
      <trkpt lat="48.75476" lon="2.03916">
        <ele>159.1</ele>
      </trkpt>
      <trkpt lat="48.75476" lon="2.03884">
        <ele>158.3</ele>
        <time>2022-08-26T09:05:06Z</time>
      </trkpt>
      <trkpt lat="48.75456" lon="2.03813">
        <ele>155.6</ele>
      </trkpt>
      <trkpt lat="48.75468" lon="2.03767">
        <ele>155</ele>
        <time>2022-08-26T09:05:22Z</time>
      </trkpt>
      <trkpt lat="48.75494" lon="2.03672">
        <ele>154.6</ele>
        <time>2022-08-26T09:05:38Z</time>
      </trkpt>
      <trkpt lat="48.7551" lon="2.03603">
        <ele>155.8</ele>
      </trkpt>
      <trkpt lat="48.75521" lon="2.03532">
        <ele>156</ele>
        <time>2022-08-26T09:05:53Z</time>
      </trkpt>
      <trkpt lat="48.75535" lon="2.03415">
        <ele>156.4</ele>
        <time>2022-08-26T09:06:09Z</time>
      </trkpt>
      <trkpt lat="48.75538" lon="2.03394">
        <ele>156.3</ele>
      </trkpt>
      <trkpt lat="48.75537" lon="2.0335">
        <ele>154.7</ele>
      </trkpt>
      <trkpt lat="48.75539" lon="2.03307">
        <ele>153.7</ele>
      </trkpt>
      <trkpt lat="48.75557" lon="2.03275">
        <ele>153.9</ele>
        <time>2022-08-26T09:06:24Z</time>
      </trkpt>
      <trkpt lat="48.75582" lon="2.03238">
        <ele>154.5</ele>
      </trkpt>
      <trkpt lat="48.75607" lon="2.03215">
        <ele>155.8</ele>
        <time>2022-08-26T09:06:40Z</time>
      </trkpt>
      <trkpt lat="48.7563" lon="2.03077">
        <ele>152.9</ele>
        <time>2022-08-26T09:06:56Z</time>
      </trkpt>
      <trkpt lat="48.75641" lon="2.03064">
        <ele>153.5</ele>
        <time>2022-08-26T09:07:11Z</time>
      </trkpt>
      <trkpt lat="48.75656" lon="2.03042">
        <ele>154.4</ele>
        <time>2022-08-26T09:07:28Z</time>
      </trkpt>
      <trkpt lat="48.75665" lon="2.02989">
        <ele>154.4</ele>
      </trkpt>
      <trkpt lat="48.75659" lon="2.02943">
        <ele>153.2</ele>
        <time>2022-08-26T09:07:43Z</time>
      </trkpt>
      <trkpt lat="48.75637" lon="2.0283">
        <ele>152.8</ele>
      </trkpt>
      <trkpt lat="48.75642" lon="2.02792">
        <ele>161.021805</ele>
        <time>2022-08-26T09:07:59Z</time>
      </trkpt>
      <trkpt lat="48.75646" lon="2.02768">
        <ele>153.5</ele>
      </trkpt>
      <trkpt lat="48.7568" lon="2.02687">
        <ele>155.5</ele>
      </trkpt>
      <trkpt lat="48.75686" lon="2.02679">
        <ele>155.7</ele>
        <time>2022-08-26T09:08:14Z</time>
      </trkpt>
      <trkpt lat="48.7574" lon="2.02618">
        <ele>163.763</ele>
        <time>2022-08-26T09:08:30Z</time>
      </trkpt>
      <trkpt lat="48.75799" lon="2.02525">
        <ele>158</ele>
        <time>2022-08-26T09:08:46Z</time>
      </trkpt>
      <trkpt lat="48.75863" lon="2.02422">
        <ele>171.587479</ele>
        <time>2022-08-26T09:09:01Z</time>
      </trkpt>
      <trkpt lat="48.75908" lon="2.02378">
        <ele>159</ele>
      </trkpt>
      <trkpt lat="48.75932" lon="2.02365">
        <ele>159.5</ele>
        <time>2022-08-26T09:09:17Z</time>
      </trkpt>
      <trkpt lat="48.75997" lon="2.02334">
        <ele>161.9</ele>
        <time>2022-08-26T09:09:33Z</time>
      </trkpt>
      <trkpt lat="48.76007" lon="2.02222">
        <ele>173.810638</ele>
        <time>2022-08-26T09:09:48Z</time>
      </trkpt>
      <trkpt lat="48.76009" lon="2.02172">
        <ele>161.3</ele>
      </trkpt>
      <trkpt lat="48.76026" lon="2.02092">
        <ele>161.9</ele>
        <time>2022-08-26T09:10:04Z</time>
      </trkpt>
      <trkpt lat="48.76027" lon="2.02048">
        <ele>161.9</ele>
      </trkpt>
      <trkpt lat="48.76013" lon="2.02009">
        <ele>161</ele>
        <time>2022-08-26T09:10:19Z</time>
      </trkpt>
      <trkpt lat="48.75963" lon="2.01865">
        <ele>158.7</ele>
        <time>2022-08-26T09:10:35Z</time>
      </trkpt>
      <trkpt lat="48.7593" lon="2.01775">
        <ele>159</ele>
        <time>2022-08-26T09:10:50Z</time>
      </trkpt>
      <trkpt lat="48.7583" lon="2.01708">
        <ele>165.61058</ele>
        <time>2022-08-26T09:11:06Z</time>
      </trkpt>
      <trkpt lat="48.75744" lon="2.01639">
        <ele>161</ele>
        <time>2022-08-26T09:11:22Z</time>
      </trkpt>
      <trkpt lat="48.75723" lon="2.01691">
        <ele>161</ele>
        <time>2022-08-26T09:11:37Z</time>
      </trkpt>
      <trkpt lat="48.7572" lon="2.01754">
        <ele>160</ele>
      </trkpt>
      <trkpt lat="48.75693" lon="2.01787">
        <ele>160</ele>
        <time>2022-08-26T09:11:52Z</time>
      </trkpt>
      <trkpt lat="48.75687" lon="2.01819">
        <ele>159.4</ele>
      </trkpt>
      <trkpt lat="48.75674" lon="2.01813">
        <ele>159.2</ele>
      </trkpt>
      <trkpt lat="48.75668" lon="2.0182">
        <ele>159</ele>
      </trkpt>
      <trkpt lat="48.75657" lon="2.01818">
        <ele>159</ele>
        <time>2022-08-26T09:12:07Z</time>
      </trkpt>
      <trkpt lat="48.75635" lon="2.01834">
        <ele>159</ele>
      </trkpt>
      <trkpt lat="48.75622" lon="2.01804">
        <ele>159</ele>
      </trkpt>
      <trkpt lat="48.75602" lon="2.01785">
        <ele>159</ele>
        <time>2022-08-26T09:12:23Z</time>
      </trkpt>
      <trkpt lat="48.75581" lon="2.0175">
        <ele>159</ele>
        <time>2022-08-26T09:12:38Z</time>
      </trkpt>
      <trkpt lat="48.75555" lon="2.01719">
        <ele>159</ele>
        <time>2022-08-26T09:12:54Z</time>
      </trkpt>
      <trkpt lat="48.75546" lon="2.01686">
        <ele>159.5</ele>
      </trkpt>
      <trkpt lat="48.75551" lon="2.01638">
        <ele>160</ele>
        <time>2022-08-26T09:13:09Z</time>
      </trkpt>
      <trkpt lat="48.75523" lon="2.01599">
        <ele>160.1</ele>
      </trkpt>
      <trkpt lat="48.75527" lon="2.01581">
        <ele>160.1</ele>
      </trkpt>
      <trkpt lat="48.75512" lon="2.01569">
        <ele>160.8</ele>
      </trkpt>
      <trkpt lat="48.75509" lon="2.01547">
        <ele>161</ele>
      </trkpt>
      <trkpt lat="48.75495" lon="2.01525">
        <ele>161</ele>
        <time>2022-08-26T09:13:25Z</time>
      </trkpt>
      <trkpt lat="48.75492" lon="2.01496">
        <ele>161.1</ele>
      </trkpt>
      <trkpt lat="48.75463" lon="2.01462">
        <ele>162</ele>
      </trkpt>
      <trkpt lat="48.75418" lon="2.01375">
        <ele>163</ele>
        <time>2022-08-26T09:13:40Z</time>
      </trkpt>
      <trkpt lat="48.75403" lon="2.01314">
        <ele>163</ele>
        <time>2022-08-26T09:13:56Z</time>
      </trkpt>
      <trkpt lat="48.75401" lon="2.01258">
        <ele>164</ele>
      </trkpt>
      <trkpt lat="48.75433" lon="2.01196">
        <ele>164</ele>
        <time>2022-08-26T09:14:12Z</time>
      </trkpt>
      <trkpt lat="48.75429" lon="2.01046">
        <ele>165</ele>
        <time>2022-08-26T09:14:27Z</time>
      </trkpt>
      <trkpt lat="48.75417" lon="2.00964">
        <ele>165</ele>
        <time>2022-08-26T09:14:43Z</time>
      </trkpt>
      <trkpt lat="48.75383" lon="2.00911">
        <ele>165.2</ele>
        <time>2022-08-26T09:14:59Z</time>
      </trkpt>
      <trkpt lat="48.75319" lon="2.00829">
        <ele>166</ele>
        <time>2022-08-26T09:15:14Z</time>
      </trkpt>
      <trkpt lat="48.75236" lon="2.00669">
        <ele>167</ele>
        <time>2022-08-26T09:15:29Z</time>
      </trkpt>
      <trkpt lat="48.75211" lon="2.00587">
        <ele>167</ele>
        <time>2022-08-26T09:15:44Z</time>
      </trkpt>
      <trkpt lat="48.75203" lon="2.00537">
        <ele>167</ele>
        <time>2022-08-26T09:16:45Z</time>
      </trkpt>
      <trkpt lat="48.75168" lon="2.00585">
        <ele>173.936646</ele>
        <time>2022-08-26T09:17:00Z</time>
      </trkpt>
      <trkpt lat="48.75147" lon="2.00605">
        <ele>167</ele>
      </trkpt>
      <trkpt lat="48.75124" lon="2.00631">
        <ele>167.4</ele>
        <time>2022-08-26T09:17:16Z</time>
      </trkpt>
      <trkpt lat="48.75086" lon="2.00676">
        <ele>167.9</ele>
        <time>2022-08-26T09:17:32Z</time>
      </trkpt>
      <trkpt lat="48.75048" lon="2.00722">
        <ele>168</ele>
        <time>2022-08-26T09:17:47Z</time>
      </trkpt>
      <trkpt lat="48.75033" lon="2.0074">
        <ele>168</ele>
      </trkpt>
      <trkpt lat="48.74994" lon="2.0069">
        <ele>168</ele>
      </trkpt>
      <trkpt lat="48.74976" lon="2.00694">
        <ele>175.14975</ele>
        <time>2022-08-26T09:18:03Z</time>
      </trkpt>
      <trkpt lat="48.7495" lon="2.00679">
        <ele>168</ele>
      </trkpt>
      <trkpt lat="48.74915" lon="2.00693">
        <ele>168</ele>
      </trkpt>
      <trkpt lat="48.74863" lon="2.00721">
        <ele>168</ele>
        <time>2022-08-26T09:18:18Z</time>
      </trkpt>
      <trkpt lat="48.74811" lon="2.00791">
        <ele>168</ele>
        <time>2022-08-26T09:18:34Z</time>
      </trkpt>
      <trkpt lat="48.74777" lon="2.00876">
        <ele>166.4</ele>
        <time>2022-08-26T09:18:50Z</time>
      </trkpt>
      <trkpt lat="48.74755" lon="2.00932">
        <ele>161.4</ele>
        <time>2022-08-26T09:19:05Z</time>
      </trkpt>
      <trkpt lat="48.74731" lon="2.00992">
        <ele>150.8</ele>
        <time>2022-08-26T09:19:21Z</time>
      </trkpt>
      <trkpt lat="48.74708" lon="2.01036">
        <ele>142</ele>
      </trkpt>
      <trkpt lat="48.7469" lon="2.0108">
        <ele>137.7</ele>
      </trkpt>
      <trkpt lat="48.7467" lon="2.01106">
        <ele>132.5</ele>
        <time>2022-08-26T09:19:36Z</time>
      </trkpt>
      <trkpt lat="48.74612" lon="2.01181">
        <ele>122.3</ele>
        <time>2022-08-26T09:19:52Z</time>
      </trkpt>
      <trkpt lat="48.74588" lon="2.01226">
        <ele>121.6</ele>
        <time>2022-08-26T09:20:08Z</time>
      </trkpt>
      <trkpt lat="48.74578" lon="2.01279">
        <ele>122.6</ele>
        <time>2022-08-26T09:20:24Z</time>
      </trkpt>
      <trkpt lat="48.74577" lon="2.01359">
        <ele>123</ele>
      </trkpt>
      <trkpt lat="48.74568" lon="2.0139">
        <ele>121.2</ele>
        <time>2022-08-26T09:20:39Z</time>
      </trkpt>
      <trkpt lat="48.74547" lon="2.0143">
        <ele>119.3</ele>
      </trkpt>
      <trkpt lat="48.74528" lon="2.01462">
        <ele>118.3</ele>
        <time>2022-08-26T09:20:54Z</time>
      </trkpt>
      <trkpt lat="48.74523" lon="2.01499">
        <ele>119.4</ele>
        <time>2022-08-26T09:21:10Z</time>
      </trkpt>
      <trkpt lat="48.74528" lon="2.01528">
        <ele>120.9</ele>
      </trkpt>
      <trkpt lat="48.74542" lon="2.01547">
        <ele>122.9</ele>
        <time>2022-08-26T09:21:25Z</time>
      </trkpt>
      <trkpt lat="48.74553" lon="2.01605">
        <ele>122.8</ele>
        <time>2022-08-26T09:28:18Z</time>
      </trkpt>
      <trkpt lat="48.74553" lon="2.01621">
        <ele>122.7</ele>
        <time>2022-08-26T09:28:33Z</time>
      </trkpt>
      <trkpt lat="48.74551" lon="2.01627">
        <ele>122.3</ele>
        <time>2022-08-26T09:28:48Z</time>
      </trkpt>
      <trkpt lat="48.74549" lon="2.01632">
        <ele>122.1</ele>
      </trkpt>
      <trkpt lat="48.74548" lon="2.01637">
        <ele>121.8</ele>
      </trkpt>
      <trkpt lat="48.74545" lon="2.01643">
        <ele>129.661606</ele>
        <time>2022-08-26T09:29:04Z</time>
      </trkpt>
      <trkpt lat="48.74543" lon="2.01676">
        <ele>120.6</ele>
      </trkpt>
      <trkpt lat="48.74545" lon="2.01711">
        <ele>121.1</ele>
        <time>2022-08-26T09:29:20Z</time>
      </trkpt>
      <trkpt lat="48.74545" lon="2.01734">
        <ele>122.3</ele>
        <time>2022-08-26T09:29:35Z</time>
      </trkpt>
      <trkpt lat="48.74542" lon="2.01746">
        <ele>123.1</ele>
      </trkpt>
      <trkpt lat="48.74524" lon="2.01758">
        <ele>123.8</ele>
        <time>2022-08-26T09:34:14Z</time>
      </trkpt>
      <trkpt lat="48.74483" lon="2.01783">
        <ele>125.1</ele>
        <time>2022-08-26T09:34:30Z</time>
      </trkpt>
      <trkpt lat="48.74444" lon="2.01813">
        <ele>127.6</ele>
        <time>2022-08-26T09:34:45Z</time>
      </trkpt>
      <trkpt lat="48.74371" lon="2.01842">
        <ele>122.8</ele>
        <time>2022-08-26T09:35:00Z</time>
      </trkpt>
      <trkpt lat="48.74366" lon="2.01844">
        <ele>122</ele>
      </trkpt>
      <trkpt lat="48.74339" lon="2.01875">
        <ele>120.8</ele>
      </trkpt>
      <trkpt lat="48.7429" lon="2.01903">
        <ele>115.4</ele>
      </trkpt>
      <trkpt lat="48.74277" lon="2.01907">
        <ele>113.8</ele>
        <time>2022-08-26T09:35:16Z</time>
      </trkpt>
      <trkpt lat="48.74268" lon="2.0191">
        <ele>113.3</ele>
      </trkpt>
      <trkpt lat="48.742" lon="2.01958">
        <ele>113.1</ele>
        <time>2022-08-26T09:35:32Z</time>
      </trkpt>
      <trkpt lat="48.74163" lon="2.02008">
        <ele>111.9</ele>
      </trkpt>
      <trkpt lat="48.74095" lon="2.02139">
        <ele>114.5</ele>
      </trkpt>
      <trkpt lat="48.74077" lon="2.02189">
        <ele>113.4</ele>
        <time>2022-08-26T09:35:47Z</time>
      </trkpt>
      <trkpt lat="48.74056" lon="2.02252">
        <ele>113.3</ele>
      </trkpt>
      <trkpt lat="48.74027" lon="2.02279">
        <ele>111</ele>
      </trkpt>
      <trkpt lat="48.73996" lon="2.02296">
        <ele>111.3</ele>
      </trkpt>
      <trkpt lat="48.73993" lon="2.02327">
        <ele>112.2</ele>
      </trkpt>
      <trkpt lat="48.73986" lon="2.02385">
        <ele>115.4</ele>
      </trkpt>
      <trkpt lat="48.73955" lon="2.02481">
        <ele>123.3</ele>
      </trkpt>
      <trkpt lat="48.73949" lon="2.02509">
        <ele>125.4</ele>
      </trkpt>
      <trkpt lat="48.73945" lon="2.02553">
        <ele>128.8</ele>
      </trkpt>
      <trkpt lat="48.73964" lon="2.02597">
        <ele>133.1</ele>
      </trkpt>
      <trkpt lat="48.73978" lon="2.02626">
        <ele>138.5</ele>
      </trkpt>
      <trkpt lat="48.73998" lon="2.02651">
        <ele>144</ele>
      </trkpt>
      <trkpt lat="48.73974" lon="2.02626">
        <ele>138.2</ele>
      </trkpt>
      <trkpt lat="48.73944" lon="2.02555">
        <ele>129.2</ele>
      </trkpt>
      <trkpt lat="48.73944" lon="2.02524">
        <ele>126.9</ele>
      </trkpt>
      <trkpt lat="48.73947" lon="2.0251">
        <ele>125.6</ele>
      </trkpt>
      <trkpt lat="48.73958" lon="2.02462">
        <ele>121.8</ele>
      </trkpt>
      <trkpt lat="48.73971" lon="2.02425">
        <ele>118.7</ele>
      </trkpt>
      <trkpt lat="48.73983" lon="2.02387">
        <ele>115.5</ele>
      </trkpt>
      <trkpt lat="48.73991" lon="2.02326">
        <ele>112.4</ele>
      </trkpt>
      <trkpt lat="48.73991" lon="2.02296">
        <ele>111.5</ele>
      </trkpt>
      <trkpt lat="48.73934" lon="2.02271">
        <ele>112.5</ele>
      </trkpt>
      <trkpt lat="48.73831" lon="2.02245">
        <ele>109.1</ele>
        <time>2022-08-26T09:36:02Z</time>
      </trkpt>
      <trkpt lat="48.73645" lon="2.02291">
        <ele>108.3</ele>
      </trkpt>
      <trkpt lat="48.73518" lon="2.02299">
        <ele>106.6</ele>
        <time>2022-08-26T09:36:17Z</time>
      </trkpt>
      <trkpt lat="48.73445" lon="2.02289">
        <ele>102.4</ele>
      </trkpt>
      <trkpt lat="48.73418" lon="2.02348">
        <ele>103.7</ele>
      </trkpt>
      <trkpt lat="48.73421" lon="2.02394">
        <ele>109.3</ele>
      </trkpt>
      <trkpt lat="48.73406" lon="2.02456">
        <ele>120.1</ele>
      </trkpt>
      <trkpt lat="48.7336" lon="2.02516">
        <ele>126.4</ele>
      </trkpt>
      <trkpt lat="48.73344" lon="2.02547">
        <ele>131.3</ele>
      </trkpt>
      <trkpt lat="48.7332" lon="2.02574">
        <ele>135.2</ele>
      </trkpt>
      <trkpt lat="48.73293" lon="2.02627">
        <ele>137.4</ele>
      </trkpt>
      <trkpt lat="48.73282" lon="2.02707">
        <ele>142.2</ele>
      </trkpt>
      <trkpt lat="48.7327" lon="2.02753">
        <ele>145.1</ele>
      </trkpt>
      <trkpt lat="48.73241" lon="2.02837">
        <ele>148.9</ele>
      </trkpt>
      <trkpt lat="48.73238" lon="2.02851">
        <ele>150.2</ele>
      </trkpt>
      <trkpt lat="48.73239" lon="2.02927">
        <ele>158.5</ele>
      </trkpt>
      <trkpt lat="48.73237" lon="2.02946">
        <ele>159.6</ele>
      </trkpt>
      <trkpt lat="48.73204" lon="2.03009">
        <ele>161</ele>
      </trkpt>
      <trkpt lat="48.73223" lon="2.03049">
        <ele>161</ele>
      </trkpt>
      <trkpt lat="48.73238" lon="2.03133">
        <ele>161</ele>
      </trkpt>
      <trkpt lat="48.73237" lon="2.03227">
        <ele>160.9</ele>
      </trkpt>
      <trkpt lat="48.73232" lon="2.03298">
        <ele>160</ele>
      </trkpt>
      <trkpt lat="48.73233" lon="2.03309">
        <ele>160</ele>
      </trkpt>
      <trkpt lat="48.73225" lon="2.03406">
        <ele>158.1</ele>
      </trkpt>
      <trkpt lat="48.73202" lon="2.03484">
        <ele>157.8</ele>
      </trkpt>
      <trkpt lat="48.73144" lon="2.03584">
        <ele>158.6</ele>
      </trkpt>
      <trkpt lat="48.73125" lon="2.03643">
        <ele>157.7</ele>
      </trkpt>
      <trkpt lat="48.73127" lon="2.03676">
        <ele>158.7</ele>
        <time>2022-08-26T09:57:53Z</time>
      </trkpt>
      <trkpt lat="48.73115" lon="2.03728">
        <ele>155.7</ele>
      </trkpt>
      <trkpt lat="48.73122" lon="2.03831">
        <ele>157.8</ele>
      </trkpt>
      <trkpt lat="48.73136" lon="2.03914">
        <ele>159.8</ele>
      </trkpt>
      <trkpt lat="48.73132" lon="2.04013">
        <ele>159</ele>
      </trkpt>
      <trkpt lat="48.73151" lon="2.04092">
        <ele>159</ele>
      </trkpt>
      <trkpt lat="48.7328" lon="2.04511">
        <ele>160.5</ele>
      </trkpt>
      <trkpt lat="48.73284" lon="2.04522">
        <ele>161</ele>
      </trkpt>
      <trkpt lat="48.73317" lon="2.04499">
        <ele>161.4</ele>
      </trkpt>
      <trkpt lat="48.73358" lon="2.04602">
        <ele>164.9</ele>
      </trkpt>
      <trkpt lat="48.7338" lon="2.04788">
        <ele>166</ele>
      </trkpt>
      <trkpt lat="48.73376" lon="2.04853">
        <ele>166</ele>
      </trkpt>
      <trkpt lat="48.73391" lon="2.04945">
        <ele>166</ele>
      </trkpt>
      <trkpt lat="48.73671" lon="2.0529">
        <ele>166.9</ele>
      </trkpt>
      <trkpt lat="48.73798" lon="2.0543">
        <ele>165</ele>
      </trkpt>
      <trkpt lat="48.73905" lon="2.05569">
        <ele>164</ele>
      </trkpt>
      <trkpt lat="48.73931" lon="2.05601">
        <ele>164</ele>
      </trkpt>
      <trkpt lat="48.74139" lon="2.05749">
        <ele>162</ele>
      </trkpt>
      <trkpt lat="48.74254" lon="2.05912">
        <ele>157.9</ele>
      </trkpt>
      <trkpt lat="48.74302" lon="2.05962">
        <ele>157.1</ele>
      </trkpt>
      <trkpt lat="48.7434" lon="2.06027">
        <ele>156.7</ele>
      </trkpt>
      <trkpt lat="48.74382" lon="2.06081">
        <ele>155.2</ele>
      </trkpt>
      <trkpt lat="48.74385" lon="2.06095">
        <ele>155.1</ele>
      </trkpt>
      <trkpt lat="48.74386" lon="2.06156">
        <ele>154</ele>
      </trkpt>
      <trkpt lat="48.74365" lon="2.062">
        <ele>153.7</ele>
      </trkpt>
    </trkseg>
  </trk>
</gpx>